Latest Coastal Weather Observations for Hillarys Point Boat Harbour

IDW60701

Issued at 6:15 am WST Tuesday 23 September 2014 (issued every 10 minutes, with the page automatically refreshed every 10 minutes)

About coastal observations | Map of coastal stations | Coastal observations for WA | Marine services | Other Formats
Station Details ID: 009265 Name: HILLARYS BOAT HARBOUR NTC AWS Lat: -31.83 Lon: 115.74 Height: 0.0 m
Data from the previous 72 hours. | See also: Recent months for locations in Western Australia
Date/Time
WST
Temp

°C
Wind Pressure Rain
since 9am
mm
Weather Cloud Vis
km
Sea
Height
m
Swell
Dir
 
Speed
knots
Gust
knots
hPa Trend Height
m
Period
s
Dir
23/06:00am 10.6 ENE 6 9 1025.6 - - - - - - - - -
23/05:30am 10.4 ENE 6 9 1025.5 - - - - - - - - -
23/05:00am 10.0 ENE 6 9 1025.1 - - - - - - - - -
23/04:30am 10.2 ENE 5 8 1025.0 - - - - - - - - -
23/04:00am 10.3 ENE 4 6 1025.0 - - - - - - - - -
23/03:30am 10.7 ENE 3 5 1025.0 - - - - - - - - -
23/03:00am 10.6 ENE 3 5 1025.2 - - - - - - - - -
23/02:30am 11.2 ENE 3 5 1025.1 - - - - - - - - -
23/02:00am 11.4 E 1 4 1025.3 - - - - - - - - -
23/01:30am 11.7 SSE 1 3 1025.5 - - - - - - - - -
23/01:00am 12.0 E 1 3 1025.6 - - - - - - - - -
23/12:30am 12.5 E 2 5 1025.4 - - - - - - - - -
23/12:00am 13.1 SE 2 6 1025.5 - - - - - - - - -
 
Date/Time
WST
Temp

°C
Wind Pressure Rain
since 9am
mm
Weather Cloud Vis
km
Sea
Height
m
Swell
Dir
 
Speed
knots
Gust
knots
hPa Trend Height
m
Period
s
Dir
22/11:30pm 13.5 SSE 4 8 1025.5 - - - - - - - - -
22/11:00pm 13.7 SE 2 7 1025.6 - - - - - - - - -
22/10:30pm 14.1 SE 3 9 1025.6 - - - - - - - - -
22/10:00pm 14.7 SSE 3 8 1025.7 - - - - - - - - -
22/09:30pm 15.1 SSE 5 9 1025.4 - - - - - - - - -
22/09:00pm 15.8 S 4 13 1025.5 - - - - - - - - -
22/08:30pm 15.9 S 5 12 1025.2 - - - - - - - - -
22/08:00pm 15.8 S 5 11 1025.0 - - - - - - - - -
22/07:30pm 15.7 S 5 12 1024.7 - - - - - - - - -
22/07:00pm 15.7 SSW 6 15 1024.3 - - - - - - - - -
22/06:30pm 15.7 SSW 9 16 1023.9 - - - - - - - - -
22/06:00pm 15.7 SSW 6 14 1023.5 - - - - - - - - -
22/05:30pm 15.9 SSW 9 16 1023.1 - - - - - - - - -
22/05:00pm 16.3 SSW 8 14 1022.8 - - - - - - - - -
22/04:30pm 16.0 SSW 8 14 1022.5 - - - - - - - - -
22/04:00pm 16.0 SSW 9 16 1022.4 - - - - - - - - -
22/03:30pm 15.9 SSW 9 16 1022.1 - - - - - - - - -
22/03:00pm 16.0 SSW 8 15 1021.8 - - - - - - - - -
22/02:30pm 15.8 SSW 8 15 1021.7 - - - - - - - - -
22/02:00pm 15.9 SSW 8 13 1021.9 - - - - - - - - -
22/01:30pm 15.7 SSW 8 14 1022.0 - - - - - - - - -
22/01:00pm 15.4 SSW 8 14 1021.9 - - - - - - - - -
22/12:30pm 16.0 SSW 5 11 1022.0 - - - - - - - - -
22/12:00pm 15.2 SSW 7 13 1022.1 - - - - - - - - -
22/11:30am 15.0 SSW 6 11 1022.0 - - - - - - - - -
22/11:00am 15.3 SSW 5 11 1022.2 - - - - - - - - -
22/10:30am 14.9 SSW 5 10 1022.2 - - - - - - - - -
22/10:00am 14.6 S 5 10 1022.2 - - - - - - - - -
22/09:30am 14.3 S 5 12 1022.2 - - - - - - - - -
22/09:00am 13.9 S 4 9 1022.1 - - - - - - - - -
22/08:30am 13.3 SSE 5 8 1021.7 - - - - - - - - -
22/08:00am 12.7 SSE 4 9 1021.4 - - - - - - - - -
22/07:30am 11.6 SE 3 7 1020.9 - - - - - - - - -
22/07:00am 10.9 SSE 6 13 1020.7 - - - - - - - - -
22/06:30am 12.4 W 6 11 1020.2 - - - - - - - - -
22/06:00am 10.9 SSE 4 10 1019.4 - - - - - - - - -
22/05:30am 11.5 SSE 4 14 1018.6 - - - - - - - - -
22/05:00am 11.6 SSE 4 11 1018.2 - - - - - - - - -
22/04:30am 11.6 S 5 13 1017.9 - - - - - - - - -
22/04:00am 12.4 S 6 16 1016.9 - - - - - - - - -
22/03:30am 12.8 S 7 18 1016.8 - - - - - - - - -
22/03:00am 12.1 S 7 19 1016.2 - - - - - - - - -
22/02:30am 13.4 S 5 13 1015.8 - - - - - - - - -
22/02:00am 13.4 S 6 15 1015.7 - - - - - - - - -
22/01:30am 13.5 SSE 9 19 1015.3 - - - - - - - - -
22/01:00am 13.6 SSE 8 14 1015.3 - - - - - - - - -
22/12:30am 13.9 S 7 14 1015.0 - - - - - - - - -
22/12:00am 13.9 S 8 17 1014.6 - - - - - - - - -
 
Date/Time
WST
Temp

°C
Wind Pressure Rain
since 9am
mm
Weather Cloud Vis
km
Sea
Height
m
Swell
Dir
 
Speed
knots
Gust
knots
hPa Trend Height
m
Period
s
Dir
21/11:30pm 14.2 S 7 20 1014.3 - - - - - - - - -
21/11:00pm 14.4 S 7 20 1014.1 - - - - - - - - -
21/10:30pm 14.3 S 8 16 1013.8 - - - - - - - - -
21/10:00pm 14.4 S 9 22 1013.5 - - - - - - - - -
21/09:30pm 14.4 S 8 19 1013.0 - - - - - - - - -
21/09:00pm 14.2 S 8 18 1012.2 - - - - - - - - -
21/08:30pm 14.4 S 8 20 1011.7 - - - - - - - - -
21/08:00pm 14.3 S 8 20 1011.4 - - - - - - - - -
21/07:30pm 15.3 SSW 10 25 1010.7 - - - - - - - - -
21/07:00pm 14.5 SSW 16 31 1009.7 - - - - - - - - -
21/06:43pm 14.4 SSW 15 26 1010.0 - - - - - - - - -
21/06:30pm 14.8 SSW 12 23 1009.3 - - - - - - - - -
21/06:00pm 14.9 NW 9 16 1008.9 - - - - - - - - -
21/05:30pm 15.4 WNW 9 18 1008.2 - - - - - - - - -
21/05:00pm 15.0 NW 6 22 1008.3 - - - - - - - - -
21/04:30pm 15.4 N 7 12 1008.2 - - - - - - - - -
21/04:00pm 15.3 N 7 10 1008.4 - - - - - - - - -
21/03:30pm 15.2 N 5 8 1007.6 - - - - - - - - -
21/03:00pm 15.4 N 6 10 1006.9 - - - - - - - - -
21/02:30pm 15.8 NW 5 10 1008.0 - - - - - - - - -
21/02:00pm 15.4 WNW 4 8 1007.3 - - - - - - - - -
21/01:30pm 15.1 W 6 9 1007.4 - - - - - - - - -
21/01:00pm 14.6 WSW 13 17 1007.0 - - - - - - - - -
21/12:30pm 15.3 W 13 19 1007.5 - - - - - - - - -
21/12:00pm 15.0 W 15 24 1008.3 - - - - - - - - -
21/11:33am 15.0 WSW 17 27 1007.8 - - - - - - - - -
21/11:30am 14.7 WSW 18 28 1007.9 - - - - - - - - -
21/11:00am 15.5 WSW 19 25 1006.2 - - - - - - - - -
21/10:30am 15.5 WSW 20 27 1006.0 - - - - - - - - -
21/10:00am 15.9 WSW 20 28 1005.6 - - - - - - - - -
21/09:44am 16.0 SW 20 30 1004.9 - - - - - - - - -
21/09:43am 16.1 SW 20 27 1004.9 - - - - - - - - -
21/09:32am 16.9 W 17 28 1004.8 - - - - - - - - -
21/09:30am 17.2 W 16 24 1004.6 - - - - - - - - -
21/09:26am 18.4 NW 16 27 1004.9 - - - - - - - - -
21/09:00am 20.9 N 12 21 1004.1 - - - - - - - - -
21/08:30am 21.1 N 17 31 1003.9 - - - - - - - - -
21/08:20am 20.8 N 15 26 1004.1 - - - - - - - - -
21/08:00am 20.4 N 13 27 1004.5 - - - - - - - - -
21/07:30am 19.7 N 13 22 1004.8 - - - - - - - - -
21/07:00am 18.2 NNE 10 16 1005.0 - - - - - - - - -
21/06:30am 17.6 NNE 10 16 1005.2 - - - - - - - - -
21/06:00am 17.1 NNE 8 13 1005.5 - - - - - - - - -
21/05:30am 16.9 NNE 8 13 1005.7 - - - - - - - - -
21/05:00am 17.0 NNE 6 9 1005.5 - - - - - - - - -
21/04:30am 17.3 NNE 6 11 1005.8 - - - - - - - - -
21/04:00am 17.7 NNE 6 10 1006.0 - - - - - - - - -
21/03:30am 18.9 NNE 9 18 1006.2 - - - - - - - - -
21/03:00am 18.2 NNE 8 14 1006.6 - - - - - - - - -
21/02:30am 17.7 NNE 6 10 1007.2 - - - - - - - - -
21/02:00am 17.6 NNE 7 11 1007.6 - - - - - - - - -
21/01:30am 17.8 NNE 6 10 1008.1 - - - - - - - - -
21/01:00am 18.7 NNE 6 10 1008.4 - - - - - - - - -
21/12:30am 19.2 N 5 8 1008.9 - - - - - - - - -
21/12:00am 19.1 N 6 9 1009.3 - - - - - - - - -
 
Date/Time
WST
Temp

°C
Wind Pressure Rain
since 9am
mm
Weather Cloud Vis
km
Sea
Height
m
Swell
Dir
 
Speed
knots
Gust
knots
hPa Trend Height
m
Period
s
Dir
20/11:30pm 19.3 NNW 7 11 1009.8 - - - - - - - - -
20/11:00pm 18.8 N 4 7 1010.6 - - - - - - - - -
20/10:30pm 19.2 NNE 4 6 1011.4 - - - - - - - - -
20/10:00pm 19.7 N 4 7 1011.5 - - - - - - - - -
20/09:30pm 19.6 N 5 9 1012.0 - - - - - - - - -
20/09:00pm 20.0 N 6 9 1012.3 - - - - - - - - -
20/08:30pm 20.2 N 7 11 1012.1 - - - - - - - - -
20/08:00pm 20.2 N 6 10 1012.1 - - - - - - - - -
20/07:30pm 20.2 N 5 8 1011.9 - - - - - - - - -
20/07:00pm 20.2 N 6 8 1011.6 - - - - - - - - -
20/06:30pm 20.3 N 6 10 1011.5 - - - - - - - - -
20/06:00pm 20.7 N 7 12 1011.2 - - - - - - - - -
20/05:30pm 21.2 NNW 8 14 1010.8 - - - - - - - - -
20/05:00pm 21.9 NNW 10 17 1010.1 - - - - - - - - -
20/04:30pm 22.9 NNW 8 14 1009.5 - - - - - - - - -
20/04:00pm 22.3 NNW 6 11 1009.2 - - - - - - - - -
20/03:30pm 22.5 NW 4 8 1009.1 - - - - - - - - -
20/03:00pm 22.4 WNW 7 13 1009.4 - - - - - - - - -
20/02:30pm 25.5 NNW 7 14 1008.6 - - - - - - - - -
20/02:00pm 29.2 NNW 9 14 1008.5 - - - - - - - - -
20/01:30pm 32.4 N 12 21 1009.0 - - - - - - - - -
20/01:00pm 31.6 N 9 17 1009.5 - - - - - - - - -
20/12:30pm 30.7 NNE 11 19 1010.2 - - - - - - - - -
20/12:00pm 29.6 NE 10 16 1010.8 - - - - - - - - -
20/11:30am 28.6 NE 11 19 1011.1 - - - - - - - - -
20/11:00am 27.7 NE 10 21 1011.5 - - - - - - - - -
20/10:30am 26.5 NNE 11 21 1012.0 - - - - - - - - -
20/10:00am 25.6 NE 11 19 1012.4 - - - - - - - - -
20/09:30am 24.1 NE 9 17 1012.7 - - - - - - - - -
20/09:00am 22.5 ENE 12 22 1012.8 - - - - - - - - -
20/08:30am 21.4 ENE 14 25 1013.1 - - - - - - - - -
20/08:00am 20.3 ENE 13 18 1013.4 - - - - - - - - -
20/07:30am 19.1 ENE 12 20 1013.6 - - - - - - - - -
20/07:00am 17.6 ENE 11 17 1014.0 - - - - - - - - -
20/06:30am 16.6 ENE 9 14 1014.1 - - - - - - - - -

Other Formats:

Comma delimited format used in spreadsheet applications
http://www.bom.gov.au/fwo/IDW60701/IDW60701.95605.axf

JavaScript Object Notation format (JSON) in row-major order
http://www.bom.gov.au/fwo/IDW60701/IDW60701.95605.json